Дата Пункты Температура Давл., мм. Влажн., % Ветер Погодные явления
Воздуха Воды Направл. Скорость
06.11.18 08:00 Одесса 9.0 13.0 767 73 Пн-С 4 08 ГОДИН
06.11.18 05:00 Одесса 10.0 13.0 767 78 Пн-С 7 05 ГОДИН
06.11.18 02:00 Одесса 11.0 13.0 767 86 С 5 02 ГОДИНИ
05.11.18 11:00 Одесса 11.0 13.0 767 88 С 7 23 ГОДИНИ
05.11.18 08:00 Одесса 12.0 13.0 767 85 С 8 20 ГОДИН
05.11.18 05:00 Одесса 12.0 13.0 766 89 Пн-С 3 17 ГОДИН
05.11.18 02:00 Одесса 13.0 13.0 766 79 Пн-С 2 14 ГОДИН
05.11.18 11:00 Одесса 10.0 13.0 767 89 Пн-С 4 11 ГОДИН
05.11.18 08:00 Одесса 8.0 13.0 767 95 Пн 4 08 ГОДИН
05.11.18 05:00 Одесса 9.0 13.0 766 96 Пн 2 05 ГОДИН
05.11.18 02:00 Одесса 9.0 13.0 767 97 Пн 0 02 ГОДИНИ
04.11.18 11:00 Одесса 9.0 13.0 767 97 Пн 0 23 ГОДИНИ
04.11.18 08:00 Одесса 10.0 13.0 767 95 Пн-С 1 20 ГОДИН
04.11.18 05:00 Одесса 10.0 13.0 767 90 Пн 0 17 ГОДИН
04.11.18 02:00 Одесса 12.0 13.0 767 84 Пн 0 14 ГОДИН
04.11.18 11:00 Одесса 11.0 13.0 768 89 Пн 0 11 ГОДИН
04.11.18 08:00 Одесса 10.0 13.0 768 93 Пн 0 08 ГОДИН
04.11.18 05:00 Одесса 10.0 14.0 768 93 Пн 0 05 ГОДИН
04.11.18 02:00 Одесса 10.0 14.0 768 94 Пн 1 02 ГОДИНИ
03.11.18 11:00 Одесса 8.0 14.0 769 94 Пн 0 23 ГОДИНИ
Количество строк
1 2 3 4 5 6 7 8 9 10
Page 5 of 426